createdAt,value
2019-05-07T00:01:54.374Z,98.10
2019-05-07T00:04:22.649Z,98.30
2019-05-07T00:06:52.897Z,98.40
2019-05-07T00:09:23.457Z,98.40
2019-05-07T00:11:53.516Z,98.70
2019-05-07T00:14:24.317Z,98.60
2019-05-07T00:16:54.218Z,98.70
2019-05-07T00:19:24.313Z,98.70
2019-05-07T00:21:54.191Z,98.60
2019-05-07T00:24:23.833Z,98.70
2019-05-07T00:26:53.455Z,98.70
2019-05-07T00:29:23.356Z,98.80
2019-05-07T00:31:53.052Z,98.90
2019-05-07T00:34:24.490Z,98.80
2019-05-07T00:36:58.239Z,99.00
2019-05-07T00:39:42.449Z,99.00
2019-05-07T00:42:29.956Z,99.10
2019-05-07T00:45:14.070Z,99.20
2019-05-07T00:47:33.107Z,99.20
2019-05-07T00:50:04.641Z,99.10
2019-05-07T00:52:34.370Z,99.20
2019-05-07T00:55:05.663Z,99.40
2019-05-07T00:57:35.443Z,99.40
2019-05-07T01:00:07.314Z,99.30
2019-05-07T01:02:36.926Z,99.30
2019-05-07T01:05:06.600Z,99.60
2019-05-07T01:07:36.136Z,99.50
2019-05-07T01:10:08.720Z,99.60
2019-05-07T01:12:38.286Z,99.60
2019-05-07T01:15:08.183Z,99.80
2019-05-07T01:17:37.971Z,99.70
2019-05-07T01:20:07.769Z,99.70
2019-05-07T01:22:37.392Z,99.80
2019-05-07T01:25:08.239Z,99.90
2019-05-07T01:27:37.931Z,99.80
2019-05-07T01:30:08.171Z,99.80
2019-05-07T01:32:46.395Z,99.90
2019-05-07T01:35:17.568Z,99.90
2019-05-07T01:37:47.958Z,99.90
2019-05-07T01:40:17.708Z,99.90
2019-05-07T01:42:47.558Z,99.90
2019-05-07T01:45:17.325Z,99.90
2019-05-07T01:47:46.950Z,99.90
2019-05-07T01:50:16.658Z,99.90
2019-05-07T01:52:46.291Z,99.90
2019-05-07T01:55:16.003Z,99.90
2019-05-07T01:57:45.692Z,99.90
2019-05-07T02:00:15.541Z,99.90
2019-05-07T02:02:52.523Z,99.90
2019-05-07T02:05:42.283Z,99.90
2019-05-07T02:08:12.909Z,99.90
2019-05-07T02:10:44.259Z,99.90
2019-05-07T02:13:13.978Z,99.90
2019-05-07T02:15:57.423Z,99.90
2019-05-07T02:18:15.119Z,99.90
2019-05-07T02:20:44.833Z,99.90
2019-05-07T02:23:14.536Z,99.90
2019-05-07T02:25:44.067Z,99.90
2019-05-07T02:28:13.655Z,99.90
2019-05-07T02:30:44.452Z,99.90
2019-05-07T02:33:14.420Z,99.90
2019-05-07T02:35:44.190Z,99.90
2019-05-07T02:38:23.016Z,99.90
2019-05-07T02:40:54.634Z,99.90
2019-05-07T02:43:24.322Z,99.90
2019-05-07T02:46:20.698Z,99.90
2019-05-07T02:48:42.893Z,99.90
2019-05-07T02:51:13.845Z,99.90
2019-05-07T02:53:48.203Z,99.90
2019-05-07T02:56:17.953Z,99.90
2019-05-07T02:58:47.663Z,99.90
2019-05-07T03:01:17.413Z,99.90
2019-05-07T03:03:47.106Z,99.90
2019-05-07T03:06:16.890Z,99.90
2019-05-07T03:08:46.717Z,99.90
2019-05-07T03:11:18.022Z,99.90
2019-05-07T03:13:48.662Z,99.90
2019-05-07T03:16:35.297Z,99.90
2019-05-07T03:18:53.048Z,99.90
2019-05-07T03:21:23.534Z,99.90
2019-05-07T03:23:54.309Z,99.90
2019-05-07T03:26:28.414Z,99.90
2019-05-07T03:28:59.749Z,99.90
2019-05-07T03:31:36.986Z,99.90
2019-05-07T03:34:16.262Z,99.90
2019-05-07T03:36:48.836Z,99.90
2019-05-07T03:39:19.425Z,99.90
2019-05-07T03:41:49.307Z,99.90
2019-05-07T03:44:36.503Z,99.90
2019-05-07T03:47:16.252Z,99.90
2019-05-07T03:49:46.047Z,99.90
2019-05-07T03:52:15.746Z,99.90
2019-05-07T03:54:45.271Z,99.90
2019-05-07T03:57:15.952Z,99.90
2019-05-07T03:59:45.821Z,99.90
2019-05-07T04:02:15.543Z,99.90
2019-05-07T04:04:45.078Z,99.90
2019-05-07T04:07:14.671Z,99.90
2019-05-07T04:09:44.341Z,99.90
2019-05-07T04:12:14.035Z,99.90
2019-05-07T04:14:43.584Z,99.90
2019-05-07T04:17:18.510Z,99.90
2019-05-07T04:19:44.596Z,99.90
2019-05-07T04:22:14.601Z,99.90
2019-05-07T04:24:45.868Z,99.90
2019-05-07T04:27:23.839Z,99.90
2019-05-07T04:29:53.745Z,99.90
2019-05-07T04:32:25.092Z,99.90
2019-05-07T04:34:58.841Z,99.90
2019-05-07T04:37:28.489Z,99.90
2019-05-07T04:39:58.192Z,99.90
2019-05-07T04:42:27.864Z,99.90
2019-05-07T04:44:57.533Z,99.90
2019-05-07T04:47:41.266Z,99.90
2019-05-07T04:50:03.567Z,99.90
2019-05-07T04:52:33.721Z,99.90
2019-05-07T04:55:04.556Z,99.90
2019-05-07T04:57:34.453Z,99.90
2019-05-07T05:00:05.650Z,99.90
2019-05-07T05:02:48.514Z,99.90
2019-05-07T05:05:19.901Z,99.90
2019-05-07T05:07:49.605Z,99.90
2019-05-07T05:10:19.295Z,99.90
2019-05-07T05:12:48.925Z,99.90
2019-05-07T05:15:18.737Z,99.90
2019-05-07T05:17:51.478Z,99.90
2019-05-07T05:20:22.164Z,99.90
2019-05-07T05:23:11.985Z,99.90
2019-05-07T05:25:43.751Z,99.90
2019-05-07T05:28:13.924Z,99.90
2019-05-07T05:30:49.396Z,99.90
2019-05-07T05:33:19.170Z,99.90
2019-05-07T05:35:48.632Z,99.90
2019-05-07T05:38:18.348Z,99.90
2019-05-07T05:40:48.054Z,99.90
2019-05-07T05:43:19.302Z,99.90
2019-05-07T05:45:56.363Z,99.90
2019-05-07T05:48:25.914Z,99.90
2019-05-07T05:51:02.524Z,99.90
2019-05-07T05:53:39.047Z,99.90
2019-05-07T05:56:12.704Z,99.90
2019-05-07T05:58:59.140Z,99.90
2019-05-07T06:01:32.031Z,99.90
2019-05-07T06:04:08.868Z,99.90
2019-05-07T06:06:42.225Z,99.90
2019-05-07T06:09:15.950Z,99.90
2019-05-07T06:11:47.387Z,99.90
2019-05-07T06:14:18.653Z,99.90
2019-05-07T06:17:06.152Z,99.90
2019-05-07T06:19:37.483Z,99.90
2019-05-07T06:22:25.066Z,99.90
2019-05-07T06:24:59.157Z,99.90
2019-05-07T06:27:28.993Z,99.90
2019-05-07T06:29:58.788Z,99.90
2019-05-07T06:32:28.421Z,99.90
2019-05-07T06:34:58.096Z,99.90
2019-05-07T06:37:27.878Z,99.90
2019-05-07T06:40:05.339Z,99.50
2019-05-07T06:42:54.572Z,99.60
2019-05-07T06:45:25.913Z,99.30
2019-05-07T06:47:55.595Z,99.10
2019-05-07T06:50:25.725Z,99.00
2019-05-07T06:52:55.415Z,98.20
2019-05-07T06:55:25.118Z,97.90
2019-05-07T06:57:54.835Z,97.90
2019-05-07T07:00:27.173Z,97.80
2019-05-07T07:03:13.620Z,97.60
2019-05-07T07:05:44.949Z,97.40
2019-05-07T07:08:28.416Z,97.00
2019-05-07T07:11:15.840Z,97.10
2019-05-07T07:13:45.647Z,96.90
2019-05-07T07:16:15.362Z,96.20
2019-05-07T07:18:52.086Z,96.00
2019-05-07T07:21:16.505Z,96.10
2019-05-07T07:23:46.295Z,95.20
2019-05-07T07:26:15.963Z,94.30
2019-05-07T07:28:45.615Z,94.20
2019-05-07T07:31:32.041Z,93.30
2019-05-07T07:34:03.577Z,93.30
2019-05-07T07:36:34.891Z,92.90
2019-05-07T07:39:06.963Z,92.60
2019-05-07T07:41:52.112Z,92.50
2019-05-07T07:44:22.341Z,91.70
2019-05-07T07:46:53.160Z,91.80
2019-05-07T07:49:23.417Z,90.30
2019-05-07T07:51:53.103Z,90.30
2019-05-07T07:54:23.760Z,89.10
2019-05-07T07:57:04.248Z,88.70
2019-05-07T07:59:42.158Z,87.60
2019-05-07T08:02:13.585Z,87.00
2019-05-07T08:04:43.284Z,87.20
2019-05-07T08:07:13.000Z,87.50
2019-05-07T08:09:42.960Z,86.30
2019-05-07T08:12:13.413Z,84.60
2019-05-07T08:14:44.208Z,85.60
2019-05-07T08:17:14.021Z,85.30
2019-05-07T08:19:43.902Z,84.50
2019-05-07T08:22:14.890Z,85.40
2019-05-07T08:24:44.756Z,83.80
2019-05-07T08:27:15.200Z,82.90
2019-05-07T08:29:45.348Z,82.70
2019-05-07T08:32:25.647Z,83.30
2019-05-07T08:35:06.148Z,82.00
2019-05-07T08:37:35.923Z,81.40
2019-05-07T08:40:08.282Z,80.10
2019-05-07T08:42:38.084Z,78.60
2019-05-07T08:45:25.584Z,76.90
2019-05-07T08:47:56.983Z,78.00
2019-05-07T08:50:27.421Z,77.10
2019-05-07T08:52:58.087Z,76.90
2019-05-07T08:55:28.704Z,74.10
2019-05-07T08:57:58.514Z,74.60
2019-05-07T09:00:28.328Z,75.70
2019-05-07T09:02:58.069Z,73.60
2019-05-07T09:05:27.889Z,73.20
2019-05-07T09:07:57.755Z,72.60
2019-05-07T09:10:27.579Z,72.40
2019-05-07T09:12:57.404Z,70.10
2019-05-07T09:15:27.230Z,68.80
2019-05-07T09:17:57.180Z,69.50
2019-05-07T09:20:27.177Z,69.70
2019-05-07T09:22:56.930Z,68.00
2019-05-07T09:25:26.784Z,68.70
2019-05-07T09:27:56.767Z,66.00
2019-05-07T09:30:28.730Z,64.90
2019-05-07T09:33:09.109Z,65.10
2019-05-07T09:35:49.040Z,63.80
2019-05-07T09:38:19.782Z,64.80
2019-05-07T09:40:49.582Z,64.20
2019-05-07T09:43:19.396Z,63.70
2019-05-07T09:45:49.738Z,64.10
2019-05-07T09:48:19.643Z,65.10
2019-05-07T09:50:49.448Z,63.40
2019-05-07T09:53:26.967Z,63.60
2019-05-07T09:55:57.529Z,59.90
2019-05-07T09:58:36.603Z,60.60
2019-05-07T10:00:58.819Z,63.00
2019-05-07T10:03:38.572Z,62.10
2019-05-07T10:06:09.265Z,61.30
2019-05-07T10:08:39.179Z,61.30
2019-05-07T10:11:12.110Z,60.10
2019-05-07T10:13:46.604Z,57.40
2019-05-07T10:16:18.034Z,58.50
2019-05-07T10:18:47.857Z,57.40
2019-05-07T10:21:17.613Z,58.80
2019-05-07T10:23:47.459Z,59.10
2019-05-07T10:26:17.245Z,57.60
2019-05-07T10:28:46.951Z,57.30
2019-05-07T10:31:17.556Z,57.30
2019-05-07T10:33:47.458Z,57.60
2019-05-07T10:36:17.278Z,59.20
2019-05-07T10:38:47.049Z,59.70
2019-05-07T10:41:16.811Z,58.00
2019-05-07T10:43:46.537Z,58.20
2019-05-07T10:46:35.789Z,58.60
2019-05-07T10:49:13.199Z,56.80
2019-05-07T10:51:42.555Z,57.00
2019-05-07T10:54:12.683Z,57.10
2019-05-07T10:56:42.453Z,58.50
2019-05-07T10:59:13.031Z,58.00
2019-05-07T11:01:44.419Z,58.90
2019-05-07T11:04:14.150Z,58.60
2019-05-07T11:06:43.842Z,57.90
2019-05-07T11:09:13.645Z,58.80
2019-05-07T11:11:43.456Z,59.10
2019-05-07T11:14:13.248Z,59.10
2019-05-07T11:16:52.047Z,59.40
2019-05-07T11:19:22.123Z,60.20
2019-05-07T11:21:52.157Z,61.20
2019-05-07T11:24:21.913Z,62.40
2019-05-07T11:26:53.150Z,62.60
2019-05-07T11:29:22.879Z,62.50
2019-05-07T11:31:56.688Z,63.10
2019-05-07T11:34:26.350Z,63.70
2019-05-07T11:36:56.133Z,64.60
2019-05-07T11:39:25.850Z,64.80
2019-05-07T11:41:57.203Z,65.50
2019-05-07T11:44:28.567Z,65.80
2019-05-07T11:47:08.892Z,66.00
2019-05-07T11:49:55.806Z,66.20
2019-05-07T11:52:27.115Z,67.00
2019-05-07T11:54:56.864Z,67.10
2019-05-07T11:57:26.617Z,67.00
2019-05-07T11:59:56.319Z,66.40
2019-05-07T12:02:26.127Z,65.50
2019-05-07T12:04:55.825Z,65.60
2019-05-07T12:07:25.536Z,65.10
2019-05-07T12:09:55.348Z,64.70
2019-05-07T12:12:25.159Z,65.50
2019-05-07T12:14:54.873Z,65.30
2019-05-07T12:17:24.674Z,64.60
2019-05-07T12:19:54.464Z,63.70
2019-05-07T12:22:42.433Z,64.60
2019-05-07T12:25:12.323Z,65.30
2019-05-07T12:27:42.113Z,66.20
2019-05-07T12:30:13.971Z,67.00
2019-05-07T12:33:02.302Z,67.00
2019-05-07T12:35:32.203Z,67.60
2019-05-07T12:38:02.171Z,67.40
2019-05-07T12:40:32.566Z,67.80
2019-05-07T12:43:02.439Z,67.10
2019-05-07T12:45:32.234Z,68.00
2019-05-07T12:48:02.445Z,67.90
2019-05-07T12:50:32.395Z,68.00
2019-05-07T12:53:15.587Z,68.10
2019-05-07T12:55:51.730Z,67.50
2019-05-07T12:58:21.915Z,66.60
2019-05-07T13:01:05.482Z,65.90
2019-05-07T13:03:42.665Z,64.90
2019-05-07T13:06:11.869Z,64.10
2019-05-07T13:08:42.060Z,63.80
2019-05-07T13:11:13.244Z,61.60
2019-05-07T13:13:42.972Z,63.60
2019-05-07T13:16:12.874Z,63.60
2019-05-07T13:18:42.621Z,63.40
2019-05-07T13:21:12.249Z,62.00
2019-05-07T13:23:42.250Z,59.20
2019-05-07T13:26:12.204Z,59.20
2019-05-07T13:28:44.239Z,59.90
2019-05-07T13:31:13.393Z,59.90
2019-05-07T13:33:45.479Z,58.80
2019-05-07T13:36:15.600Z,59.40
2019-05-07T13:38:53.340Z,59.30
2019-05-07T13:41:42.791Z,60.90
2019-05-07T13:44:22.746Z,60.60
2019-05-07T13:46:54.736Z,61.40
2019-05-07T13:49:24.715Z,61.70
2019-05-07T13:52:03.509Z,61.60
2019-05-07T13:54:25.896Z,60.80
2019-05-07T13:56:55.590Z,59.90
2019-05-07T13:59:25.303Z,60.90
2019-05-07T14:01:56.662Z,60.70
2019-05-07T14:04:26.403Z,60.70
2019-05-07T14:07:01.787Z,60.00
2019-05-07T14:09:29.535Z,59.90
2019-05-07T14:11:59.213Z,59.90
2019-05-07T14:14:29.004Z,59.80
2019-05-07T14:16:59.608Z,59.50
2019-05-07T14:19:29.870Z,59.40
2019-05-07T14:22:00.249Z,58.50
2019-05-07T14:24:29.956Z,59.00
2019-05-07T14:27:01.843Z,58.10
2019-05-07T14:29:32.369Z,57.20
2019-05-07T14:32:03.859Z,57.80
2019-05-07T14:34:35.295Z,57.40
2019-05-07T14:37:09.564Z,57.30
2019-05-07T14:39:39.402Z,57.50
2019-05-07T14:42:12.903Z,57.80
2019-05-07T14:44:52.613Z,57.60
2019-05-07T14:47:22.412Z,58.50
2019-05-07T14:49:52.981Z,57.70
2019-05-07T14:52:32.169Z,57.80
2019-05-07T14:54:54.441Z,58.20
2019-05-07T14:57:24.204Z,58.10
2019-05-07T14:59:53.911Z,57.90
2019-05-07T15:02:23.776Z,56.90
2019-05-07T15:04:53.449Z,57.50
2019-05-07T15:07:23.158Z,56.90
2019-05-07T15:09:53.338Z,57.00
2019-05-07T15:12:23.594Z,56.60
2019-05-07T15:14:53.406Z,56.30
2019-05-07T15:17:41.995Z,56.60
2019-05-07T15:20:12.597Z,56.00
2019-05-07T15:22:52.825Z,56.70
2019-05-07T15:25:22.806Z,57.00
2019-05-07T15:27:53.850Z,55.80
2019-05-07T15:30:25.213Z,55.70
2019-05-07T15:32:55.055Z,56.00
2019-05-07T15:35:24.728Z,54.70
2019-05-07T15:37:54.414Z,55.10
2019-05-07T15:40:24.122Z,55.40
2019-05-07T15:42:54.061Z,55.70
2019-05-07T15:45:23.761Z,56.10
2019-05-07T15:47:55.160Z,55.20
2019-05-07T15:50:27.092Z,55.90
2019-05-07T15:53:12.399Z,56.10
2019-05-07T15:55:42.229Z,56.20
2019-05-07T15:58:12.146Z,56.40
2019-05-07T16:00:42.529Z,55.80
2019-05-07T16:03:27.850Z,55.30
2019-05-07T16:05:57.827Z,55.50
2019-05-07T16:08:32.008Z,56.10
2019-05-07T16:11:03.842Z,55.90
2019-05-07T16:13:53.140Z,55.80
2019-05-07T16:16:23.612Z,55.80
2019-05-07T16:19:09.465Z,56.10
2019-05-07T16:21:42.374Z,56.20
2019-05-07T16:24:12.792Z,55.90
2019-05-07T16:26:44.774Z,55.70
2019-05-07T16:29:15.088Z,56.10
2019-05-07T16:31:44.883Z,56.10
2019-05-07T16:34:15.717Z,55.50
2019-05-07T16:36:47.002Z,56.60
2019-05-07T16:39:18.484Z,56.30
2019-05-07T16:41:48.170Z,56.10
2019-05-07T16:44:37.132Z,56.30
2019-05-07T16:47:06.887Z,56.60
2019-05-07T16:49:37.252Z,56.90
2019-05-07T16:52:06.946Z,56.60
2019-05-07T16:54:36.653Z,57.20
2019-05-07T16:57:23.875Z,56.20
2019-05-07T16:59:52.731Z,56.60
2019-05-07T17:02:25.681Z,56.10
2019-05-07T17:05:05.808Z,56.70
2019-05-07T17:07:37.231Z,56.90
2019-05-07T17:10:12.260Z,56.90
2019-05-07T17:12:43.517Z,57.00
2019-05-07T17:15:13.434Z,57.30
2019-05-07T17:17:42.956Z,57.70
2019-05-07T17:20:13.135Z,57.60
2019-05-07T17:22:42.871Z,57.80
2019-05-07T17:25:30.302Z,57.90
2019-05-07T17:27:59.939Z,58.20
2019-05-07T17:30:29.457Z,58.40
2019-05-07T17:32:59.071Z,58.40
2019-05-07T17:35:28.731Z,58.50
2019-05-07T17:38:06.497Z,58.80
2019-05-07T17:40:32.012Z,58.90
2019-05-07T17:43:03.015Z,58.80
2019-05-07T17:45:33.003Z,58.30
2019-05-07T17:48:03.353Z,58.50
2019-05-07T17:50:35.132Z,58.30
2019-05-07T17:53:05.070Z,58.50
2019-05-07T17:55:34.665Z,58.70
2019-05-07T17:58:04.382Z,58.50
2019-05-07T18:00:34.159Z,59.00
2019-05-07T18:03:23.425Z,59.70
2019-05-07T18:05:53.129Z,59.60
2019-05-07T18:08:22.935Z,59.80
2019-05-07T18:10:52.607Z,60.00
2019-05-07T18:13:22.457Z,59.60
2019-05-07T18:15:52.586Z,59.80
2019-05-07T18:18:22.326Z,60.00
2019-05-07T18:20:52.260Z,60.30
2019-05-07T18:23:22.366Z,59.90
2019-05-07T18:25:53.792Z,59.80
2019-05-07T18:28:25.087Z,60.00
2019-05-07T18:30:54.868Z,60.40
2019-05-07T18:33:29.036Z,60.30
2019-05-07T18:35:58.655Z,60.00
2019-05-07T18:38:28.464Z,60.40
2019-05-07T18:40:58.269Z,60.70
2019-05-07T18:43:30.036Z,60.80
2019-05-07T18:46:02.118Z,60.90
2019-05-07T18:48:31.296Z,61.60
2019-05-07T18:51:02.726Z,62.00
2019-05-07T18:53:32.762Z,62.40
2019-05-07T18:56:02.491Z,62.40
2019-05-07T18:58:32.294Z,62.60
2019-05-07T19:01:12.409Z,62.80
2019-05-07T19:03:42.276Z,63.10
2019-05-07T19:06:13.515Z,63.60
2019-05-07T19:08:43.475Z,63.60
2019-05-07T19:11:13.375Z,63.80
2019-05-07T19:13:43.067Z,64.10
2019-05-07T19:16:12.944Z,64.50
2019-05-07T19:18:43.180Z,65.10
2019-05-07T19:21:12.904Z,66.00
2019-05-07T19:23:42.659Z,66.40
2019-05-07T19:26:13.212Z,66.80
2019-05-07T19:28:43.310Z,67.40
2019-05-07T19:31:13.158Z,67.50
2019-05-07T19:33:42.845Z,67.90
2019-05-07T19:36:12.532Z,68.80
2019-05-07T19:38:42.259Z,69.10
2019-05-07T19:41:12.426Z,69.40
2019-05-07T19:43:42.329Z,69.20
2019-05-07T19:46:12.503Z,69.30
2019-05-07T19:48:44.033Z,69.60
2019-05-07T19:51:14.007Z,69.40
2019-05-07T19:53:43.723Z,69.70
2019-05-07T19:56:15.145Z,69.90
2019-05-07T19:58:44.922Z,70.20
2019-05-07T20:01:22.616Z,70.30
2019-05-07T20:03:52.898Z,70.50
2019-05-07T20:06:23.516Z,70.80
2019-05-07T20:08:53.960Z,71.00
2019-05-07T20:11:36.293Z,71.30
2019-05-07T20:14:06.080Z,71.70
2019-05-07T20:16:37.005Z,72.40
2019-05-07T20:19:09.423Z,72.60
2019-05-07T20:21:39.715Z,73.40
2019-05-07T20:24:09.424Z,73.60
2019-05-07T20:26:39.193Z,74.10
2019-05-07T20:29:08.957Z,74.10
2019-05-07T20:31:38.755Z,74.40
2019-05-07T20:34:08.350Z,74.80
2019-05-07T20:36:38.008Z,75.40
2019-05-07T20:39:08.888Z,75.70
2019-05-07T20:41:38.508Z,75.90
2019-05-07T20:44:08.223Z,76.30
2019-05-07T20:46:37.838Z,76.80
2019-05-07T20:49:07.516Z,77.20
2019-05-07T20:51:37.263Z,77.40
2019-05-07T20:54:17.244Z,77.80
2019-05-07T20:56:48.584Z,78.20
2019-05-07T20:59:18.184Z,78.30
2019-05-07T21:01:47.781Z,78.60
2019-05-07T21:04:17.362Z,79.30
2019-05-07T21:06:46.918Z,79.20
2019-05-07T21:09:16.506Z,79.00
2019-05-07T21:11:46.158Z,79.10
2019-05-07T21:14:15.695Z,79.30
2019-05-07T21:16:45.223Z,79.40
2019-05-07T21:19:14.894Z,79.90
2019-05-07T21:21:45.951Z,80.50
2019-05-07T21:24:15.430Z,80.50
2019-05-07T21:26:45.004Z,81.20
2019-05-07T21:29:14.472Z,80.40
2019-05-07T21:31:44.019Z,80.30
2019-05-07T21:34:14.531Z,80.50
2019-05-07T21:36:44.007Z,81.50
2019-05-07T21:39:13.613Z,81.00
2019-05-07T21:41:43.178Z,81.00
2019-05-07T21:44:12.808Z,81.30
2019-05-07T21:46:42.726Z,81.50
2019-05-07T21:49:12.551Z,81.70
2019-05-07T21:51:42.216Z,81.70
2019-05-07T21:58:06.270Z,81.80
2019-05-07T22:00:54.116Z,82.00
2019-05-07T22:03:23.827Z,82.40
2019-05-07T22:05:53.495Z,82.70
2019-05-07T22:08:23.030Z,82.90
2019-05-07T22:10:52.622Z,83.10
2019-05-07T22:13:22.292Z,83.20
2019-05-07T22:15:52.197Z,83.40
2019-05-07T22:18:23.343Z,83.20
2019-05-07T22:20:52.937Z,83.20
2019-05-07T22:23:24.797Z,83.50
2019-05-07T22:25:53.953Z,83.60
2019-05-07T22:28:24.000Z,83.50
2019-05-07T22:30:55.128Z,83.70
2019-05-07T22:33:44.630Z,84.00
2019-05-07T22:36:14.570Z,84.20
2019-05-07T22:38:44.800Z,84.20
2019-05-07T22:41:14.436Z,84.10
2019-05-07T22:43:44.110Z,84.50
2019-05-07T22:46:13.719Z,84.70
2019-05-07T22:48:43.359Z,85.10
2019-05-07T22:51:13.407Z,85.00
2019-05-07T22:53:42.952Z,85.00
2019-05-07T22:56:14.107Z,85.70
2019-05-07T22:58:51.334Z,85.80
2019-05-07T23:01:22.684Z,86.00
2019-05-07T23:03:59.144Z,86.10
2019-05-07T23:06:28.716Z,85.90
2019-05-07T23:08:58.243Z,86.10
2019-05-07T23:11:27.707Z,86.60
2019-05-07T23:13:58.280Z,86.70
2019-05-07T23:16:27.887Z,87.00
2019-05-07T23:18:57.357Z,87.20
2019-05-07T23:21:27.211Z,87.60
2019-05-07T23:23:56.740Z,87.60
2019-05-07T23:26:26.614Z,88.50
2019-05-07T23:28:56.246Z,88.20
2019-05-07T23:31:25.804Z,88.50
2019-05-07T23:33:55.411Z,88.40
2019-05-07T23:36:25.021Z,88.60
2019-05-07T23:38:54.627Z,88.60
2019-05-07T23:41:32.993Z,89.20
2019-05-07T23:44:13.264Z,88.60
2019-05-07T23:46:44.871Z,89.00
2019-05-07T23:49:14.380Z,88.90
2019-05-07T23:51:44.082Z,89.00
2019-05-07T23:54:13.802Z,89.20
2019-05-07T23:56:43.497Z,89.20
2019-05-07T23:59:15.039Z,89.30
